createdAt,value
2022-12-12T00:01:04.566Z,6.54
2022-12-12T00:02:59.418Z,6.54
2022-12-12T00:04:58.055Z,6.54
2022-12-12T00:06:58.013Z,6.54
2022-12-12T00:08:58.738Z,6.54
2022-12-12T00:10:57.711Z,6.54
2022-12-12T00:12:58.181Z,6.54
2022-12-12T00:14:58.528Z,6.54
2022-12-12T00:16:58.181Z,6.54
2022-12-12T00:18:58.109Z,6.54
2022-12-12T00:20:58.610Z,6.54
2022-12-12T00:22:58.238Z,6.54
2022-12-12T00:24:58.252Z,6.54
2022-12-12T00:26:58.549Z,6.54
2022-12-12T00:28:57.792Z,6.54
2022-12-12T00:30:58.507Z,6.54
2022-12-12T00:32:57.747Z,6.54
2022-12-12T00:34:57.843Z,6.54
2022-12-12T00:36:58.162Z,6.54
2022-12-12T00:38:57.744Z,6.54
2022-12-12T00:40:57.995Z,6.54
2022-12-12T00:42:58.233Z,6.54
2022-12-12T00:44:57.565Z,6.54
2022-12-12T00:46:58.535Z,6.54
2022-12-12T00:48:58.226Z,6.54
2022-12-12T00:50:58.451Z,6.54
2022-12-12T00:52:57.786Z,6.54
2022-12-12T00:54:58.120Z,6.54
2022-12-12T00:56:58.366Z,6.54
2022-12-12T00:58:57.657Z,6.54
2022-12-12T01:01:00.484Z,6.54
2022-12-12T01:03:02.434Z,6.54
2022-12-12T01:04:58.464Z,6.54
2022-12-12T01:06:57.724Z,6.54
2022-12-12T01:08:58.456Z,6.54
2022-12-12T01:10:58.460Z,6.54
2022-12-12T01:12:57.738Z,6.54
2022-12-12T01:14:58.119Z,6.54
2022-12-12T01:16:58.970Z,6.54
2022-12-12T01:18:58.560Z,6.54
2022-12-12T01:20:57.674Z,6.54
2022-12-12T01:22:58.151Z,6.54
2022-12-12T01:24:58.510Z,6.54
2022-12-12T01:26:57.611Z,6.54
2022-12-12T01:28:58.046Z,6.54
2022-12-12T01:30:58.398Z,6.54
2022-12-12T01:32:57.703Z,6.54
2022-12-12T01:34:57.935Z,6.54
2022-12-12T01:36:58.287Z,6.54
2022-12-12T01:38:57.796Z,6.54
2022-12-12T01:40:58.113Z,6.54
2022-12-12T01:42:58.468Z,6.54
2022-12-12T01:44:57.671Z,6.54
2022-12-12T01:46:58.370Z,6.54
2022-12-12T01:49:01.761Z,6.54
2022-12-12T01:50:58.354Z,6.54
2022-12-12T01:52:57.719Z,6.54
2022-12-12T01:54:58.010Z,6.54
2022-12-12T01:56:58.190Z,6.54
2022-12-12T01:58:57.602Z,6.54
2022-12-12T02:01:01.763Z,6.54
2022-12-12T02:02:58.472Z,6.54
2022-12-12T02:04:58.347Z,6.54
2022-12-12T02:06:57.621Z,6.54
2022-12-12T02:08:58.611Z,6.54
2022-12-12T02:10:58.591Z,6.54
2022-12-12T02:12:57.747Z,6.54
2022-12-12T02:14:57.898Z,6.54
2022-12-12T02:16:58.560Z,6.54
2022-12-12T02:19:00.131Z,6.54
2022-12-12T02:20:57.695Z,6.54
2022-12-12T02:22:58.154Z,6.54
2022-12-12T02:25:00.018Z,6.54
2022-12-12T02:26:57.861Z,6.54
2022-12-12T02:28:58.112Z,6.54
2022-12-12T02:30:58.479Z,6.54
2022-12-12T02:32:57.981Z,6.54
2022-12-12T02:34:57.972Z,6.54
2022-12-12T02:36:58.426Z,6.54
2022-12-12T02:38:57.725Z,6.54
2022-12-12T02:40:57.925Z,6.54
2022-12-12T02:42:58.026Z,6.54
2022-12-12T02:44:58.473Z,6.54
2022-12-12T02:46:58.135Z,6.54
2022-12-12T02:48:57.838Z,6.54
2022-12-12T02:50:58.195Z,6.54
2022-12-12T02:52:57.717Z,6.54
2022-12-12T02:54:57.925Z,6.54
2022-12-12T02:56:58.192Z,6.54
2022-12-12T02:58:58.357Z,6.54
2022-12-12T03:01:05.562Z,6.54
2022-12-12T03:02:58.311Z,6.54
2022-12-12T03:04:58.077Z,6.54
2022-12-12T03:07:03.639Z,6.54
2022-12-12T03:08:58.049Z,6.54
2022-12-12T03:10:58.356Z,6.54
2022-12-12T03:12:57.577Z,6.54
2022-12-12T03:14:58.195Z,6.54
2022-12-12T03:16:58.900Z,6.54
2022-12-12T03:18:57.758Z,6.54
2022-12-12T03:20:58.070Z,6.54
2022-12-12T03:22:57.657Z,6.54
2022-12-12T03:24:57.855Z,6.54
2022-12-12T03:26:57.948Z,6.54
2022-12-12T03:28:58.352Z,6.54
2022-12-12T03:30:57.746Z,6.54
2022-12-12T03:32:58.253Z,6.54
2022-12-12T03:34:58.389Z,6.54
2022-12-12T03:36:57.762Z,6.54
2022-12-12T03:38:58.029Z,6.54
2022-12-12T03:40:58.302Z,6.54
2022-12-12T03:42:57.669Z,6.54
2022-12-12T03:45:04.112Z,6.54
2022-12-12T03:46:58.263Z,6.54
2022-12-12T03:48:58.435Z,6.54
2022-12-12T03:50:57.733Z,6.54
2022-12-12T03:52:58.097Z,6.54
2022-12-12T03:54:58.299Z,6.54
2022-12-12T03:56:58.505Z,6.54
2022-12-12T03:58:57.715Z,6.54
2022-12-12T04:01:01.174Z,6.54
2022-12-12T04:02:58.766Z,6.54
2022-12-12T04:04:57.507Z,6.54
2022-12-12T04:06:57.923Z,6.54
2022-12-12T04:08:58.669Z,6.54
2022-12-12T04:10:57.638Z,6.54
2022-12-12T04:12:58.049Z,6.54
2022-12-12T04:14:58.167Z,6.54
2022-12-12T04:16:58.986Z,6.54
2022-12-12T04:18:57.719Z,6.54
2022-12-12T04:20:58.461Z,6.54
2022-12-12T04:23:04.833Z,6.54
2022-12-12T04:24:57.956Z,6.54
2022-12-12T04:26:58.351Z,6.54
2022-12-12T04:28:57.723Z,6.54
2022-12-12T04:30:58.107Z,6.54
2022-12-12T04:32:58.322Z,6.54
2022-12-12T04:34:58.523Z,6.54
2022-12-12T04:36:57.875Z,6.54
2022-12-12T04:38:58.125Z,6.54
2022-12-12T04:40:58.502Z,6.54
2022-12-12T04:42:57.795Z,6.54
2022-12-12T04:44:58.292Z,6.54
2022-12-12T04:46:58.690Z,6.54
2022-12-12T04:49:04.767Z,6.54
2022-12-12T04:50:58.079Z,6.54
2022-12-12T04:52:57.619Z,6.54
2022-12-12T04:54:57.832Z,6.54
2022-12-12T04:56:58.129Z,6.54
2022-12-12T04:58:58.423Z,6.54
2022-12-12T05:01:00.861Z,6.54
2022-12-12T05:02:58.336Z,6.54
2022-12-12T05:04:58.458Z,6.54
2022-12-12T05:06:57.766Z,6.54
2022-12-12T05:08:58.254Z,6.54
2022-12-12T05:10:58.347Z,6.54
2022-12-12T05:12:57.678Z,6.54
2022-12-12T05:14:58.180Z,6.54
2022-12-12T05:16:58.795Z,6.54
2022-12-12T05:18:57.605Z,6.54
2022-12-12T05:20:58.074Z,6.54
2022-12-12T05:22:58.545Z,6.54
2022-12-12T05:24:57.903Z,6.54
2022-12-12T05:26:58.154Z,6.54
2022-12-12T05:29:01.141Z,6.54
2022-12-12T05:30:58.414Z,6.54
2022-12-12T05:32:58.368Z,6.54
2022-12-12T05:34:57.642Z,6.54
2022-12-12T05:36:58.008Z,6.54
2022-12-12T05:38:58.404Z,6.54
2022-12-12T05:40:57.868Z,6.54
2022-12-12T05:42:58.192Z,6.54
2022-12-12T05:44:58.444Z,6.54
2022-12-12T05:46:57.739Z,6.54
2022-12-12T05:48:58.572Z,6.54
2022-12-12T05:50:58.258Z,6.54
2022-12-12T05:52:57.883Z,6.54
2022-12-12T05:54:58.068Z,6.54
2022-12-12T05:56:58.184Z,6.54
2022-12-12T05:58:58.485Z,6.54
2022-12-12T06:01:03.449Z,6.54
2022-12-12T06:02:58.730Z,6.54
2022-12-12T06:04:58.856Z,6.54
2022-12-12T06:06:57.784Z,6.54
2022-12-12T06:08:59.400Z,6.54
2022-12-12T06:10:58.263Z,6.54
2022-12-12T06:12:57.669Z,6.54
2022-12-12T06:14:57.976Z,6.54
2022-12-12T06:16:58.561Z,6.54
2022-12-12T06:18:57.735Z,6.54
2022-12-12T06:20:58.093Z,6.54
2022-12-12T06:23:05.015Z,6.54
2022-12-12T06:24:57.697Z,6.54
2022-12-12T06:26:58.024Z,6.54
2022-12-12T06:28:58.505Z,6.54
2022-12-12T06:30:57.947Z,6.54
2022-12-12T06:32:57.969Z,6.54
2022-12-12T06:34:58.454Z,6.54
2022-12-12T06:36:58.162Z,6.54
2022-12-12T06:38:58.032Z,6.54
2022-12-12T06:40:58.295Z,6.54
2022-12-12T06:42:59.694Z,6.54
2022-12-12T06:44:58.200Z,6.54
2022-12-12T06:46:58.699Z,6.54
2022-12-12T06:48:57.588Z,6.54
2022-12-12T06:50:58.108Z,6.54
2022-12-12T06:52:58.346Z,6.54
2022-12-12T06:54:58.501Z,6.54
2022-12-12T06:57:00.039Z,6.54
2022-12-12T06:58:58.133Z,6.54
2022-12-12T07:01:00.686Z,6.54
2022-12-12T07:03:04.287Z,6.54
2022-12-12T07:04:58.127Z,6.54
2022-12-12T07:06:58.520Z,6.54
2022-12-12T07:08:57.967Z,6.54
2022-12-12T07:10:58.220Z,6.54
2022-12-12T07:12:59.224Z,6.54
2022-12-12T07:14:57.947Z,6.54
2022-12-12T07:16:58.686Z,6.54
2022-12-12T07:18:57.849Z,6.54
2022-12-12T07:20:58.171Z,6.54
2022-12-12T07:23:06.376Z,6.54
2022-12-12T07:24:57.678Z,6.54
2022-12-12T07:26:58.035Z,6.54
2022-12-12T07:28:58.403Z,6.54
2022-12-12T07:30:57.960Z,6.54
2022-12-12T07:32:58.078Z,6.54
2022-12-12T07:34:57.556Z,6.54
2022-12-12T07:37:02.800Z,6.54
2022-12-12T07:38:58.377Z,6.54
2022-12-12T07:40:57.627Z,6.54
2022-12-12T07:42:58.047Z,6.54
2022-12-12T07:44:58.532Z,6.54
2022-12-12T07:46:58.549Z,6.54
2022-12-12T07:48:57.962Z,6.54
2022-12-12T07:50:58.199Z,6.54
2022-12-12T07:52:58.324Z,6.54
2022-12-12T07:54:57.721Z,6.54
2022-12-12T07:56:57.812Z,6.54
2022-12-12T07:58:58.157Z,6.54
2022-12-12T08:01:00.925Z,6.54
2022-12-12T08:02:57.896Z,6.54
2022-12-12T08:04:58.480Z,6.54
2022-12-12T08:07:04.069Z,6.54
2022-12-12T08:08:57.977Z,6.54
2022-12-12T08:10:57.938Z,6.54
2022-12-12T08:12:58.147Z,6.54
2022-12-12T08:14:58.584Z,6.54
2022-12-12T08:16:58.132Z,6.54
2022-12-12T08:18:57.901Z,6.54
2022-12-12T08:20:58.588Z,6.54
2022-12-12T08:22:57.871Z,6.54
2022-12-12T08:24:57.996Z,6.54
2022-12-12T08:26:58.309Z,6.54
2022-12-12T08:28:57.727Z,6.54
2022-12-12T08:30:57.973Z,6.54
2022-12-12T08:33:06.449Z,6.54
2022-12-12T08:34:57.622Z,6.54
2022-12-12T08:36:57.917Z,6.54
2022-12-12T08:38:57.934Z,6.54
2022-12-12T08:40:58.147Z,6.54
2022-12-12T08:42:58.473Z,6.54
2022-12-12T08:44:57.796Z,6.54
2022-12-12T08:47:03.479Z,6.54
2022-12-12T08:48:58.378Z,6.54
2022-12-12T08:50:57.657Z,6.54
2022-12-12T08:52:57.795Z,6.54
2022-12-12T08:54:57.896Z,6.54
2022-12-12T08:56:58.203Z,6.54
2022-12-12T08:58:58.556Z,6.54
2022-12-12T09:01:01.156Z,6.54
2022-12-12T09:02:59.132Z,6.54
2022-12-12T09:04:58.356Z,6.54
2022-12-12T09:06:57.799Z,6.54
2022-12-12T09:08:58.512Z,6.54
2022-12-12T09:10:58.489Z,6.54
2022-12-12T09:13:04.283Z,6.54
2022-12-12T09:14:58.078Z,6.54
2022-12-12T09:16:58.644Z,6.54
2022-12-12T09:19:00.701Z,6.54
2022-12-12T09:20:58.168Z,6.54
2022-12-12T09:22:58.335Z,6.54
2022-12-12T09:24:57.625Z,6.54
2022-12-12T09:26:57.942Z,6.54
2022-12-12T09:28:58.356Z,6.54
2022-12-12T09:30:57.701Z,6.54
2022-12-12T09:32:58.879Z,6.54
2022-12-12T09:34:58.109Z,6.54
2022-12-12T09:36:58.561Z,6.54
2022-12-12T09:39:00.030Z,6.54
2022-12-12T09:40:58.003Z,6.54
2022-12-12T09:42:58.326Z,6.54
2022-12-12T09:44:57.633Z,6.54
2022-12-12T09:46:58.016Z,6.54
2022-12-12T09:48:58.308Z,6.54
2022-12-12T09:50:58.160Z,6.54
2022-12-12T09:53:04.662Z,6.54
2022-12-12T09:54:58.407Z,6.54
2022-12-12T09:56:57.823Z,6.54
2022-12-12T09:59:02.641Z,6.54
2022-12-12T10:01:02.147Z,6.54
2022-12-12T10:02:58.562Z,6.54
2022-12-12T10:05:02.433Z,6.54
2022-12-12T10:07:32.046Z,6.54
2022-12-12T10:08:58.569Z,6.54
2022-12-12T10:10:58.093Z,6.54
2022-12-12T10:13:04.430Z,6.54
2022-12-12T10:14:58.487Z,6.54
2022-12-12T10:17:01.387Z,6.54
2022-12-12T10:18:58.245Z,6.54
2022-12-12T10:20:58.107Z,6.54
2022-12-12T10:22:58.328Z,6.54
2022-12-12T10:24:58.220Z,6.54
2022-12-12T10:26:57.688Z,6.54
2022-12-12T10:28:57.922Z,6.54
2022-12-12T10:30:58.917Z,6.54
2022-12-12T10:32:57.742Z,6.54
2022-12-12T10:34:58.385Z,6.54
2022-12-12T10:36:58.283Z,6.54
2022-12-12T10:38:58.249Z,6.54
2022-12-12T10:40:58.569Z,6.54
2022-12-12T10:42:58.078Z,6.54
2022-12-12T10:44:58.915Z,6.54
2022-12-12T10:46:58.660Z,6.54
2022-12-12T10:48:57.975Z,6.54
2022-12-12T10:50:58.793Z,6.54
2022-12-12T10:52:57.698Z,6.54
2022-12-12T10:54:58.090Z,6.54
2022-12-12T10:56:58.517Z,6.54
2022-12-12T10:58:57.771Z,6.54
2022-12-12T11:01:01.677Z,6.54
2022-12-12T11:03:11.803Z,6.54
2022-12-12T11:04:58.408Z,6.54
2022-12-12T11:06:57.575Z,6.54
2022-12-12T11:08:58.156Z,6.54
2022-12-12T11:11:07.289Z,6.54
2022-12-12T11:12:58.432Z,6.54
2022-12-12T11:14:57.695Z,6.54
2022-12-12T11:16:59.146Z,6.54
2022-12-12T11:19:02.961Z,6.54
2022-12-12T11:20:58.569Z,6.54
2022-12-12T11:22:57.652Z,6.54
2022-12-12T11:24:57.863Z,6.54
2022-12-12T11:26:58.366Z,6.54
2022-12-12T11:29:03.204Z,6.54
2022-12-12T11:30:57.868Z,6.54
2022-12-12T11:32:58.155Z,6.54
2022-12-12T11:34:58.307Z,6.54
2022-12-12T11:36:57.517Z,6.54
2022-12-12T11:38:57.959Z,6.54
2022-12-12T11:40:58.369Z,6.54
2022-12-12T11:42:57.509Z,6.54
2022-12-12T11:45:05.062Z,1.96
2022-12-12T11:46:58.578Z,1.96
2022-12-12T11:48:58.546Z,0.07
2022-12-12T11:51:04.166Z,0.07
2022-12-12T11:52:58.075Z,0.07
2022-12-12T11:54:58.183Z,0.03
2022-12-12T11:56:58.441Z,0.03
2022-12-12T11:59:00.301Z,0.03
2022-12-12T12:01:01.398Z,0.03
2022-12-12T12:02:58.434Z,0.03
2022-12-12T12:05:04.697Z,0.03
2022-12-12T12:06:58.500Z,0.03
2022-12-12T12:08:58.264Z,0.03
2022-12-12T12:10:58.554Z,0.03
2022-12-12T12:12:58.326Z,0.02
2022-12-12T12:14:58.551Z,0.02
2022-12-12T12:16:58.628Z,0.02
2022-12-12T12:19:02.149Z,0.02
2022-12-12T12:20:58.764Z,0.02
2022-12-12T12:22:57.949Z,0.02
2022-12-12T12:24:58.455Z,0.02
2022-12-12T12:26:58.851Z,0.02
2022-12-12T12:28:57.928Z,0.02
2022-12-12T12:30:58.918Z,0.02
2022-12-12T12:32:58.308Z,0.02
2022-12-12T12:34:57.629Z,0.02
2022-12-12T12:37:05.866Z,0.02
2022-12-12T12:38:58.524Z,0.02
2022-12-12T12:40:58.078Z,0.02
2022-12-12T12:43:01.291Z,0.02
2022-12-12T12:44:58.302Z,0.02
2022-12-12T12:46:58.287Z,0.02
2022-12-12T12:49:03.593Z,0.02
2022-12-12T12:50:58.940Z,0.02
2022-12-12T12:52:58.303Z,0.02
2022-12-12T12:54:57.754Z,0.02
2022-12-12T12:57:06.141Z,0.02
2022-12-12T12:58:58.003Z,0.02
2022-12-12T13:01:01.994Z,0.02
2022-12-12T13:03:01.576Z,0.02
2022-12-12T13:04:57.589Z,0.02
2022-12-12T13:06:58.031Z,0.02
2022-12-12T13:08:58.878Z,0.02
2022-12-12T13:10:58.846Z,0.02
2022-12-12T13:12:58.322Z,0.02
2022-12-12T13:15:04.115Z,0.02
2022-12-12T13:16:58.593Z,0.02
2022-12-12T13:19:08.271Z,0.02
2022-12-12T13:21:02.016Z,0.02
2022-12-12T13:22:58.426Z,0.02
2022-12-12T13:25:12.320Z,0.02
2022-12-12T13:26:57.999Z,0.02
2022-12-12T13:28:58.280Z,0.02
2022-12-12T13:30:58.930Z,0.02
2022-12-12T13:32:58.253Z,0.02
2022-12-12T13:34:58.267Z,0.02
2022-12-12T13:37:03.843Z,0.02
2022-12-12T13:38:57.999Z,0.02
2022-12-12T13:40:59.079Z,0.02
2022-12-12T13:42:57.646Z,0.02
2022-12-12T13:44:58.059Z,0.02
2022-12-12T13:46:58.713Z,0.02
2022-12-12T13:49:00.013Z,0.02
2022-12-12T13:50:58.728Z,0.02
2022-12-12T13:52:58.220Z,0.02
2022-12-12T13:55:05.041Z,0.02
2022-12-12T13:56:57.813Z,0.02
2022-12-12T13:58:58.004Z,0.02
2022-12-12T14:01:01.897Z,0.02
2022-12-12T14:03:01.540Z,0.02
2022-12-12T14:04:57.949Z,0.02
2022-12-12T14:06:58.164Z,0.02
2022-12-12T14:08:58.864Z,0.02
2022-12-12T14:10:58.344Z,0.02
2022-12-12T14:13:05.476Z,0.02
2022-12-12T14:14:58.153Z,0.02
2022-12-12T14:16:57.919Z,0.02
2022-12-12T14:19:04.009Z,0.02
2022-12-12T14:20:58.646Z,0.02
2022-12-12T14:22:57.729Z,0.02
2022-12-12T14:24:59.904Z,0.02
2022-12-12T14:26:58.300Z,0.02
2022-12-12T14:28:57.608Z,0.02
2022-12-12T14:30:58.578Z,0.02
2022-12-12T14:32:58.327Z,0.02
2022-12-12T14:34:58.443Z,0.02
2022-12-12T14:36:57.683Z,0.02
2022-12-12T14:39:01.878Z,0.02
2022-12-12T14:40:58.407Z,0.02
2022-12-12T14:43:44.793Z,0.02
2022-12-12T14:45:36.262Z,0.02
2022-12-12T14:46:58.131Z,0.02
2022-12-12T14:48:58.456Z,0.02
2022-12-12T14:50:58.338Z,0.02
2022-12-12T14:52:58.383Z,0.02
2022-12-12T14:54:58.493Z,0.02
2022-12-12T14:57:03.763Z,0.02
2022-12-12T14:58:57.778Z,0.02
2022-12-12T15:01:01.727Z,0.02
2022-12-12T15:02:59.253Z,0.02
2022-12-12T15:05:04.214Z,0.02
2022-12-12T15:06:57.767Z,0.02
2022-12-12T15:08:58.276Z,0.02
2022-12-12T15:10:58.923Z,0.02
2022-12-12T15:12:58.032Z,0.02
2022-12-12T15:14:58.191Z,0.02
2022-12-12T15:17:00.023Z,0.02
2022-12-12T15:18:58.139Z,0.02
2022-12-12T15:20:58.467Z,0.02
2022-12-12T15:22:58.472Z,0.02
2022-12-12T15:24:57.908Z,0.02
2022-12-12T15:26:58.074Z,0.02
2022-12-12T15:28:57.777Z,0.02
2022-12-12T15:30:58.900Z,0.02
2022-12-12T15:32:59.017Z,0.02
2022-12-12T15:34:57.759Z,0.02
2022-12-12T15:36:59.632Z,0.02
2022-12-12T15:38:57.818Z,0.02
2022-12-12T15:40:58.482Z,0.02
2022-12-12T15:42:58.381Z,0.02
2022-12-12T15:44:57.727Z,0.02
2022-12-12T15:46:58.453Z,0.02
2022-12-12T15:48:58.508Z,0.02
2022-12-12T15:50:58.216Z,0.02
2022-12-12T15:52:58.135Z,0.02
2022-12-12T15:54:58.361Z,0.02
2022-12-12T15:56:57.556Z,0.02
2022-12-12T15:59:03.657Z,0.02
2022-12-12T16:01:02.169Z,0.02
2022-12-12T16:02:58.037Z,0.02
2022-12-12T16:04:58.090Z,0.02
2022-12-12T16:06:58.565Z,0.02
2022-12-12T16:09:05.274Z,0.02
2022-12-12T16:10:58.500Z,0.02
2022-12-12T16:12:58.084Z,0.02
2022-12-12T16:15:03.570Z,0.01
2022-12-12T16:16:58.081Z,0.01
2022-12-12T16:18:57.950Z,0.02
2022-12-12T16:21:04.467Z,0.02
2022-12-12T16:22:57.907Z,0.02
2022-12-12T16:24:58.060Z,0.01
2022-12-12T16:26:58.143Z,0.01
2022-12-12T16:28:59.467Z,0.01
2022-12-12T16:30:58.580Z,0.01
2022-12-12T16:32:57.845Z,0.01
2022-12-12T16:34:58.022Z,0.01
2022-12-12T16:37:04.814Z,0.01
2022-12-12T16:38:58.417Z,0.01
2022-12-12T16:40:58.875Z,0.01
2022-12-12T16:42:57.743Z,0.01
2022-12-12T16:44:58.135Z,0.01
2022-12-12T16:46:58.536Z,0.01
2022-12-12T16:48:58.382Z,0.01
2022-12-12T16:50:58.167Z,0.01
2022-12-12T16:52:57.911Z,0.01
2022-12-12T16:55:04.984Z,0.01
2022-12-12T16:56:58.231Z,0.01
2022-12-12T16:58:57.680Z,0.01
2022-12-12T17:01:03.164Z,0.01
2022-12-12T17:02:58.101Z,0.01
2022-12-12T17:04:58.751Z,0.01
2022-12-12T17:06:57.860Z,0.01
2022-12-12T17:08:58.678Z,0.01
2022-12-12T17:11:09.303Z,0.01
2022-12-12T17:12:57.683Z,0.01
2022-12-12T17:14:57.961Z,0.01
2022-12-12T17:17:03.170Z,0.01
2022-12-12T17:18:58.322Z,0.01
2022-12-12T17:21:01.874Z,0.01
2022-12-12T17:22:57.920Z,0.01
2022-12-12T17:24:58.229Z,0.01
2022-12-12T17:27:00.897Z,0.01
2022-12-12T17:28:58.022Z,0.01
2022-12-12T17:30:58.902Z,0.01
2022-12-12T17:33:30.625Z,0.2
2022-12-12T17:34:57.701Z,0.2
2022-12-12T17:36:58.361Z,0.2
2022-12-12T17:39:01.710Z,0.03
2022-12-12T17:40:58.284Z,0.03
2022-12-12T17:42:58.151Z,0.03
2022-12-12T17:44:58.355Z,0.03
2022-12-12T17:46:58.551Z,0.03
2022-12-12T17:48:57.917Z,0.03
2022-12-12T17:51:04.448Z,0.03
2022-12-12T17:52:58.473Z,0.03
2022-12-12T17:56:12.772Z,0.03
2022-12-12T17:57:04.785Z,0.03
2022-12-12T17:59:03.718Z,0.03
2022-12-12T18:01:01.331Z,0.03
2022-12-12T18:02:58.011Z,0.03
2022-12-12T18:05:02.610Z,0.03
2022-12-12T18:06:58.657Z,0.03
2022-12-12T18:08:57.895Z,0.03
2022-12-12T18:10:58.574Z,0.03
2022-12-12T18:13:03.097Z,0.03
2022-12-12T18:14:58.566Z,0.03
2022-12-12T18:16:58.464Z,0.03
2022-12-12T18:18:58.048Z,0.03
2022-12-12T18:21:04.966Z,0.03
2022-12-12T18:22:59.049Z,0.03
2022-12-12T18:24:57.968Z,0.03
2022-12-12T18:27:05.275Z,0.03
2022-12-12T18:28:58.608Z,0.03
2022-12-12T18:30:58.684Z,0.03
2022-12-12T18:33:02.789Z,0.03
2022-12-12T18:34:57.876Z,0.03
2022-12-12T18:36:58.376Z,0.03
2022-12-12T18:38:59.334Z,0.03
2022-12-12T18:40:58.155Z,0.03
2022-12-12T18:42:58.274Z,0.03
2022-12-12T18:44:58.384Z,0.2
2022-12-12T18:47:05.836Z,0.2
2022-12-12T18:48:57.769Z,0.2
2022-12-12T18:50:58.906Z,0.2
2022-12-12T18:52:58.519Z,0.2
2022-12-12T18:55:00.599Z,0.2
2022-12-12T18:56:58.219Z,0.2
2022-12-12T18:58:58.581Z,0.2
2022-12-12T19:01:01.786Z,0.2
2022-12-12T19:02:58.892Z,0.2
2022-12-12T19:05:08.860Z,0.2
2022-12-12T19:06:57.940Z,0.2
2022-12-12T19:08:58.457Z,0.2
2022-12-12T19:10:58.365Z,0.2
2022-12-12T19:12:59.199Z,0.2
2022-12-12T19:15:31.113Z,0.2
2022-12-12T19:16:58.012Z,0.2
2022-12-12T19:18:57.838Z,0.2
2022-12-12T19:20:59.016Z,0.2
2022-12-12T19:23:30.695Z,0.2
2022-12-12T19:24:57.894Z,0.2
2022-12-12T19:26:58.050Z,0.2
2022-12-12T19:28:58.243Z,0.2
2022-12-12T19:30:58.455Z,0.2
2022-12-12T19:32:58.033Z,0.2
2022-12-12T19:34:58.403Z,0.2
2022-12-12T19:36:57.716Z,0.2
2022-12-12T19:38:58.567Z,0.2
2022-12-12T19:40:59.091Z,0.2
2022-12-12T19:42:57.762Z,0.2
2022-12-12T19:45:05.775Z,0.2
2022-12-12T19:46:58.859Z,0.2
2022-12-12T19:48:57.722Z,0.2
2022-12-12T19:50:58.860Z,0.2
2022-12-12T19:52:59.714Z,0.25
2022-12-12T19:54:57.667Z,0.25
2022-12-12T19:56:58.198Z,0.25
2022-12-12T19:59:01.400Z,0.25
2022-12-12T20:01:00.856Z,0.25
2022-12-12T20:02:58.333Z,0.25
2022-12-12T20:04:58.399Z,0.25
2022-12-12T20:06:57.726Z,0.25
2022-12-12T20:08:58.292Z,0.25
2022-12-12T20:10:59.064Z,0.25
2022-12-12T20:13:09.720Z,0.25
2022-12-12T20:14:58.432Z,0.25
2022-12-12T20:16:58.170Z,0.25
2022-12-12T20:19:01.664Z,0.25
2022-12-12T20:20:59.153Z,0.25
2022-12-12T20:22:59.937Z,0.25
2022-12-12T20:24:58.057Z,0.25
2022-12-12T20:26:58.568Z,0.25
2022-12-12T20:28:57.735Z,0.25
2022-12-12T20:31:04.894Z,0.25
2022-12-12T20:32:57.686Z,0.25
2022-12-12T20:34:58.023Z,0.25
2022-12-12T20:36:58.396Z,0.25
2022-12-12T20:38:57.640Z,0.25
2022-12-12T20:40:58.601Z,0.25
2022-12-12T20:43:05.500Z,0.25
2022-12-12T20:44:58.133Z,0.25
2022-12-12T20:46:58.592Z,0.25
2022-12-12T20:49:03.838Z,0.25
2022-12-12T20:50:57.934Z,0.25
2022-12-12T20:52:58.359Z,0.25
2022-12-12T20:54:58.720Z,0.25
2022-12-12T20:57:08.977Z,0.25
2022-12-12T20:58:57.905Z,0.25
2022-12-12T21:01:01.321Z,0.25
2022-12-12T21:03:04.216Z,0.25
2022-12-12T21:04:57.544Z,0.25
2022-12-12T21:06:57.996Z,0.25
2022-12-12T21:08:59.480Z,0.25
2022-12-12T21:10:57.575Z,0.25
2022-12-12T21:12:58.044Z,0.25
2022-12-12T21:15:02.527Z,0.25
2022-12-12T21:16:57.805Z,0.25
2022-12-12T21:18:57.876Z,0.25
2022-12-12T21:21:03.308Z,0.25
2022-12-12T21:22:57.586Z,0.25
2022-12-12T21:24:57.802Z,0.25
2022-12-12T21:27:04.136Z,0.25
2022-12-12T21:28:58.554Z,0.25
2022-12-12T21:30:57.948Z,0.25
2022-12-12T21:32:58.087Z,0.25
2022-12-12T21:34:58.485Z,0.25
2022-12-12T21:36:57.836Z,0.25
2022-12-12T21:38:57.900Z,0.25
2022-12-12T21:40:58.222Z,0.25
2022-12-12T21:42:57.922Z,0.25
2022-12-12T21:44:59.834Z,0.25
2022-12-12T21:46:58.033Z,0.25
2022-12-12T21:48:57.875Z,0.25
2022-12-12T21:51:04.576Z,0.25
2022-12-12T21:52:57.739Z,0.25
2022-12-12T21:54:57.847Z,0.25
2022-12-12T21:56:58.270Z,0.25
2022-12-12T21:58:57.580Z,0.25
2022-12-12T22:01:00.666Z,0.25
2022-12-12T22:03:01.701Z,0.25
2022-12-12T22:04:58.270Z,0.25
2022-12-12T22:06:57.800Z,0.25
2022-12-12T22:08:58.374Z,0.25
2022-12-12T22:11:33.840Z,0.25
2022-12-12T22:13:08.875Z,0.25
2022-12-12T22:14:58.299Z,0.25
2022-12-12T22:16:57.830Z,0.25
2022-12-12T22:19:02.285Z,0.25
2022-12-12T22:20:58.349Z,0.25
2022-12-12T22:22:57.670Z,0.25
2022-12-12T22:24:57.869Z,0.25
2022-12-12T22:26:58.466Z,0.25
2022-12-12T22:28:57.913Z,0.25
2022-12-12T22:30:58.043Z,0.25
2022-12-12T22:32:58.155Z,0.25
2022-12-12T22:34:57.720Z,0.25
2022-12-12T22:36:58.078Z,0.25
2022-12-12T22:39:01.115Z,0.25
2022-12-12T22:40:57.590Z,0.25
2022-12-12T22:42:58.052Z,0.25
2022-12-12T22:44:58.480Z,0.25
2022-12-12T22:47:04.967Z,0.25
2022-12-12T22:48:57.881Z,0.25
2022-12-12T22:50:58.552Z,0.25
2022-12-12T22:52:57.685Z,0.25
2022-12-12T22:54:57.872Z,0.25
2022-12-12T22:56:58.278Z,0.25
2022-12-12T22:58:57.735Z,0.25
2022-12-12T23:01:06.801Z,0.25
2022-12-12T23:02:59.667Z,0.25
2022-12-12T23:04:58.779Z,0.25
2022-12-12T23:06:58.468Z,0.25
2022-12-12T23:08:57.857Z,0.25
2022-12-12T23:10:57.888Z,0.25
2022-12-12T23:12:58.275Z,0.25
2022-12-12T23:14:57.650Z,0.25
2022-12-12T23:16:58.359Z,0.25
2022-12-12T23:18:58.431Z,0.25
2022-12-12T23:20:57.678Z,0.25
2022-12-12T23:22:57.918Z,0.25
2022-12-12T23:24:58.156Z,0.25
2022-12-12T23:26:57.711Z,0.25
2022-12-12T23:28:59.319Z,0.25
2022-12-12T23:30:58.428Z,0.25
2022-12-12T23:32:57.854Z,0.25
2022-12-12T23:34:58.125Z,0.25
2022-12-12T23:36:58.326Z,0.25
2022-12-12T23:38:57.821Z,0.25
2022-12-12T23:40:58.145Z,0.25
2022-12-12T23:42:57.582Z,0.25
2022-12-12T23:45:02.247Z,0.25
2022-12-12T23:46:58.383Z,0.25
2022-12-12T23:48:58.732Z,0.25
2022-12-12T23:50:57.965Z,0.25
2022-12-12T23:52:58.630Z,0.25
2022-12-12T23:54:58.361Z,0.25
2022-12-12T23:56:58.545Z,0.25
2022-12-12T23:58:58.062Z,0.25
